Time;durP1;ratioP1;P1;durP2;ratioP2;P2;SDS_P1;SDS_P2;PMS_P1;PMS_P2;Temp;Humidity;BMP_temperature;BMP_pressure;BME280_temperature;BME280_humidity;BME280_pressure;Samples;Min_cycle;Max_cycle;Signal;HPM_P1;HPM_P2
2022/06/11 00:01:26;;;;;;;5.80;3.53;;;;;;;-144.82;100.00;71671.09;4998728;28;20387;-73
2022/06/11 00:03:56;;;;;;;5.85;3.17;;;;;;;-144.82;100.00;71671.09;5015217;28;20080;-72
2022/06/11 00:06:23;;;;;;;7.57;4.10;;;;;;;-144.82;100.00;71671.09;5015295;28;20117;-73
2022/06/11 00:08:51;;;;;;;6.10;3.58;;;;;;;-144.82;100.00;71671.09;5016131;28;20054;-74
2022/06/11 00:11:26;;;;;;;5.72;3.50;;;;;;;-144.82;100.00;71671.09;5015980;28;20479;-74
2022/06/11 00:13:52;;;;;;;8.30;4.07;;;;;;;-144.82;100.00;71671.09;5016424;28;20104;-73
2022/06/11 00:16:20;;;;;;;7.63;3.70;;;;;;;-144.82;100.00;71671.09;5015035;28;20137;-73
2022/06/11 00:18:48;;;;;;;8.23;4.90;;;;;;;-144.82;100.00;71671.09;5014864;28;20021;-73
2022/06/11 00:21:16;;;;;;;7.53;4.40;;;;;;;-144.82;100.00;71671.09;5013938;28;20096;-74
2022/06/11 00:23:43;;;;;;;5.93;3.65;;;;;;;-144.82;100.00;71671.09;5014877;28;20041;-74
2022/06/11 00:26:11;;;;;;;6.50;4.00;;;;;;;-144.82;100.00;71671.09;5014786;28;20385;-74
2022/06/11 00:28:38;;;;;;;5.72;3.50;;;;;;;-144.82;100.00;71671.09;5015268;28;20037;-72
2022/06/11 00:31:04;;;;;;;10.05;4.00;;;;;;;-144.82;100.00;71671.09;5014992;28;20033;-74
2022/06/11 00:33:31;;;;;;;5.07;4.57;;;;;;;-144.82;100.00;71671.09;5014646;28;20029;-74
2022/06/11 00:35:57;;;;;;;7.82;3.60;;;;;;;-144.82;100.00;71671.09;5014647;28;20379;-73
2022/06/11 00:38:24;;;;;;;7.65;3.95;;;;;;;-144.82;100.00;71671.09;5015715;28;20018;-74
2022/06/11 00:40:52;;;;;;;4.93;3.65;;;;;;;-144.82;100.00;71671.09;5014558;28;20038;-74
2022/06/11 00:43:20;;;;;;;5.40;3.85;;;;;;;-144.82;100.00;71671.09;4998601;28;20468;-74
2022/06/11 00:46:24;;;;;;;5.07;4.20;;;;;;;-144.82;100.00;71671.09;5014376;28;20116;-73
2022/06/11 00:48:53;;;;;;;6.03;3.97;;;;;;;-144.82;100.00;71671.09;5014197;28;20032;-73
2022/06/11 00:51:21;;;;;;;6.50;3.78;;;;;;;-144.82;100.00;71671.09;5015878;28;20026;-73
2022/06/11 00:53:53;;;;;;;5.85;3.47;;;;;;;-144.82;100.00;71671.09;5015349;28;20054;-73
2022/06/11 00:56:41;;;;;;;8.43;4.28;;;;;;;-144.82;100.00;71671.09;5015251;28;20026;-73
2022/06/11 00:59:14;;;;;;;6.35;4.45;;;;;;;-144.82;100.00;71671.09;5015360;28;20030;-73
2022/06/11 01:01:41;;;;;;;7.35;4.68;;;;;;;-144.82;100.00;71671.09;5013999;28;20118;-75
2022/06/11 01:04:57;;;;;;;7.78;4.22;;;;;;;-144.82;100.00;71671.09;5014308;28;20030;-74
2022/06/11 01:07:47;;;;;;;15.48;5.22;;;;;;;-144.82;100.00;71671.09;4971648;28;20133;-73
2022/06/11 01:10:19;;;;;;;9.15;4.53;;;;;;;-144.82;100.00;71671.09;4976094;28;20503;-73
2022/06/11 01:13:10;;;;;;;8.65;4.97;;;;;;;-144.82;100.00;71671.09;4976204;28;20037;-73
2022/06/11 01:15:50;;;;;;;6.80;4.72;;;;;;;-144.82;100.00;71671.09;4976034;28;20030;-73
2022/06/11 01:18:42;;;;;;;10.82;4.72;;;;;;;-144.82;100.00;71671.09;4974727;28;20058;-73
2022/06/11 01:21:35;;;;;;;7.65;4.65;;;;;;;-144.82;100.00;71671.09;4973587;28;20049;-73
2022/06/11 01:24:48;;;;;;;7.82;4.90;;;;;;;-144.82;100.00;71671.09;4975789;28;20035;-73
2022/06/11 01:27:48;;;;;;;6.65;4.90;;;;;;;-144.82;100.00;71671.09;4954391;29;20122;-73
2022/06/11 01:30:53;;;;;;;7.50;5.10;;;;;;;-144.82;100.00;71671.09;4961830;28;20039;-72
2022/06/11 01:33:43;;;;;;;5.80;4.45;;;;;;;-144.82;100.00;71671.09;4972470;28;20041;-73
2022/06/11 01:36:23;;;;;;;8.20;4.95;;;;;;;-144.82;100.00;71671.09;4990607;28;20065;-73
2022/06/11 01:39:07;;;;;;;7.80;4.38;;;;;;;-144.82;100.00;71671.09;4974672;28;20038;-73
2022/06/11 01:41:51;;;;;;;16.35;5.00;;;;;;;-144.82;100.00;71671.09;4974485;28;20034;-72
2022/06/11 01:44:26;;;;;;;9.18;5.38;;;;;;;-144.82;100.00;71671.09;4990624;28;20034;-72
2022/06/11 01:46:53;;;;;;;10.60;5.25;;;;;;;-144.82;100.00;71671.09;4974389;28;20046;-73
2022/06/11 01:49:27;;;;;;;11.15;5.20;;;;;;;-144.82;100.00;71671.09;4958306;28;20041;-71
2022/06/11 01:52:05;;;;;;;10.90;4.90;;;;;;;-144.82;100.00;71671.09;4974140;28;20396;-72
2022/06/11 01:54:52;;;;;;;5.82;4.55;;;;;;;-144.82;100.00;71671.09;4975494;28;20038;-73
2022/06/11 01:57:36;;;;;;;9.20;4.18;;;;;;;-144.82;100.00;71671.09;4975314;28;20034;-73
2022/06/11 02:00:20;;;;;;;7.97;4.90;;;;;;;-144.82;100.00;71671.09;4975331;28;20070;-73
2022/06/11 02:02:55;;;;;;;6.00;4.55;;;;;;;-144.82;100.00;71671.09;4975241;28;20046;-72
2022/06/11 02:06:06;;;;;;;9.10;5.05;;;;;;;-144.82;100.00;71671.09;4975259;28;20077;-73
2022/06/11 02:08:37;;;;;;;6.70;4.32;;;;;;;-144.82;100.00;71671.09;4961792;28;20230;-72
2022/06/11 02:11:31;;;;;;;10.07;5.47;;;;;;;-144.82;100.00;71671.09;4992278;28;20074;-73
2022/06/11 02:14:20;;;;;;;10.23;5.15;;;;;;;-144.82;100.00;71671.09;4994643;28;20026;-73
2022/06/11 02:16:46;;;;;;;6.82;5.18;;;;;;;-144.82;100.00;71671.09;4993438;28;20037;-73
2022/06/11 02:19:18;;;;;;;10.00;5.28;;;;;;;-144.82;100.00;71671.09;4994282;28;20456;-72
2022/06/11 02:21:54;;;;;;;9.80;5.37;;;;;;;-144.82;100.00;71671.09;4993147;28;20031;-71
2022/06/11 02:24:27;;;;;;;7.20;4.43;;;;;;;-144.82;100.00;71671.09;4994449;28;20277;-74
2022/06/11 02:26:57;;;;;;;11.07;5.28;;;;;;;-144.82;100.00;71671.09;4976808;28;20027;-73
2022/06/11 02:29:24;;;;;;;10.75;4.88;;;;;;;-144.82;100.00;71671.09;4977139;28;20491;-73
2022/06/11 02:31:57;;;;;;;10.63;4.50;;;;;;;-144.82;100.00;71671.09;4977156;28;20034;-73
2022/06/11 02:34:25;;;;;;;10.10;4.43;;;;;;;-144.82;100.00;71671.09;4993194;28;20124;-73
2022/06/11 02:37:05;;;;;;;12.10;5.07;;;;;;;-144.82;100.00;71671.09;4993044;28;20038;-73
2022/06/11 02:39:35;;;;;;;9.02;5.03;;;;;;;-144.82;100.00;71671.09;4994359;28;20059;-73
2022/06/11 02:42:03;;;;;;;10.77;4.70;;;;;;;-144.82;100.00;71671.09;4976931;28;20030;-73
2022/06/11 02:44:30;;;;;;;12.25;5.15;;;;;;;-144.82;100.00;71671.09;4992513;28;20106;-73
2022/06/11 02:46:57;;;;;;;18.98;5.15;;;;;;;-144.82;100.00;71671.09;4994040;28;20026;-74
2022/06/11 02:49:46;;;;;;;6.20;4.47;;;;;;;-144.82;100.00;71671.09;4993963;28;20480;-73
2022/06/11 02:52:20;;;;;;;7.10;4.55;;;;;;;-144.82;100.00;71671.09;4993895;28;20023;-72
2022/06/11 02:54:49;;;;;;;14.32;5.20;;;;;;;-144.82;100.00;71671.09;4992833;28;20096;-73
2022/06/11 02:57:20;;;;;;;8.18;3.88;;;;;;;-144.82;100.00;71671.09;4992807;28;20033;-73
2022/06/11 02:59:51;;;;;;;15.20;4.40;;;;;;;-144.82;100.00;71671.09;4976824;28;20431;-73
2022/06/11 03:02:25;;;;;;;13.90;4.90;;;;;;;-144.82;100.00;71671.09;4993852;28;20101;-72
2022/06/11 03:04:52;;;;;;;9.45;4.60;;;;;;;-144.82;100.00;71671.09;4994065;28;20030;-73
2022/06/11 03:07:19;;;;;;;7.25;4.13;;;;;;;-144.82;100.00;71671.09;4993630;28;20042;-72
2022/06/11 03:09:46;;;;;;;10.00;5.22;;;;;;;-144.82;100.00;71671.09;4995227;28;20085;-72
2022/06/11 03:12:13;;;;;;;9.32;4.43;;;;;;;-144.82;100.00;71671.09;5012430;28;20185;-73
2022/06/11 03:14:41;;;;;;;11.05;5.45;;;;;;;-144.82;100.00;71671.09;4995948;28;20029;-73
2022/06/11 03:17:10;;;;;;;11.98;5.90;;;;;;;-144.82;100.00;71671.09;5013248;28;20383;-74
2022/06/11 03:19:37;;;;;;;8.40;4.68;;;;;;;-144.82;100.00;71671.09;5013600;28;20026;-73
2022/06/11 03:22:04;;;;;;;10.20;5.05;;;;;;;-144.82;100.00;71671.09;5013201;28;20030;-73
2022/06/11 03:24:31;;;;;;;9.05;5.13;;;;;;;-144.82;100.00;71671.09;5013295;28;20035;-73
2022/06/11 03:26:57;;;;;;;11.63;4.85;;;;;;;-144.82;100.00;71671.09;5011949;28;20113;-73
2022/06/11 03:29:25;;;;;;;7.78;3.97;;;;;;;-144.82;100.00;71671.09;5011822;28;20479;-73
2022/06/11 03:31:50;;;;;;;9.88;5.07;;;;;;;-144.82;100.00;71671.09;5011956;28;20042;-72
2022/06/11 03:34:17;;;;;;;8.40;3.85;;;;;;;-144.82;100.00;71671.09;5013373;28;20033;-73
2022/06/11 03:36:45;;;;;;;6.57;4.25;;;;;;;-144.82;100.00;71671.09;5011786;28;20040;-73
2022/06/11 03:39:14;;;;;;;8.63;4.20;;;;;;;-144.82;100.00;71671.09;5011951;28;20135;-73
2022/06/11 03:41:40;;;;;;;4.82;3.70;;;;;;;-144.82;100.00;71671.09;5011822;28;20108;-74
2022/06/11 03:44:07;;;;;;;8.32;4.25;;;;;;;-144.82;100.00;71671.09;5012637;28;20046;-74
2022/06/11 03:46:32;;;;;;;5.45;3.92;;;;;;;-144.82;100.00;71671.09;5013122;28;20042;-73
2022/06/11 03:49:00;;;;;;;6.30;4.55;;;;;;;-144.82;100.00;71671.09;5011862;28;20034;-73
2022/06/11 03:51:27;;;;;;;6.38;4.30;;;;;;;-144.82;100.00;71671.09;5012041;28;20026;-72
2022/06/11 03:53:53;;;;;;;7.20;3.95;;;;;;;-144.82;100.00;71671.09;5013167;28;20041;-74
2022/06/11 03:56:19;;;;;;;8.73;4.00;;;;;;;-144.82;100.00;71671.09;5013683;28;20034;-72
2022/06/11 03:58:48;;;;;;;6.50;3.80;;;;;;;-144.82;100.00;71671.09;5015091;28;20030;-73
2022/06/11 04:01:14;;;;;;;9.60;4.35;;;;;;;-144.82;100.00;71671.09;5015302;28;20045;-73
2022/06/11 04:03:57;;;;;;;8.73;4.30;;;;;;;-144.82;100.00;71671.09;5015462;28;20038;-73
2022/06/11 04:06:45;;;;;;;6.93;4.00;;;;;;;-144.82;100.00;71671.09;5016389;28;20033;-73
2022/06/11 04:09:15;;;;;;;6.28;3.90;;;;;;;-144.82;100.00;71671.09;5015473;28;20562;-73
2022/06/11 04:11:41;;;;;;;8.55;4.70;;;;;;;-144.82;100.00;71671.09;5015186;28;20037;-73
2022/06/11 04:14:08;;;;;;;8.40;4.15;;;;;;;-144.82;100.00;71671.09;5015151;28;20034;-74
2022/06/11 04:16:40;;;;;;;9.13;4.63;;;;;;;-144.82;100.00;71671.09;5014982;28;20062;-73
2022/06/11 04:19:07;;;;;;;10.80;4.97;;;;;;;-144.82;100.00;71671.09;4998941;28;20399;-73
2022/06/11 04:21:36;;;;;;;5.70;4.05;;;;;;;-144.82;100.00;71671.09;4998455;28;20044;-73
2022/06/11 04:24:04;;;;;;;6.40;4.30;;;;;;;-144.82;100.00;71671.09;5014827;28;20499;-73
2022/06/11 04:26:35;;;;;;;8.98;4.88;;;;;;;-144.82;100.00;71671.09;5014775;28;20037;-73
2022/06/11 04:29:03;;;;;;;10.73;4.80;;;;;;;-144.82;100.00;71671.09;5014855;28;20038;-74
2022/06/11 04:31:30;;;;;;;7.32;3.72;;;;;;;-144.82;100.00;71671.09;4998467;28;20487;-74
2022/06/11 04:33:57;;;;;;;7.18;4.85;;;;;;;-144.82;100.00;71671.09;5014796;28;20372;-73
2022/06/11 04:36:26;;;;;;;6.78;4.57;;;;;;;-144.82;100.00;71671.09;5014453;28;20038;-73
2022/06/11 04:38:53;;;;;;;6.20;4.10;;;;;;;-144.82;100.00;71671.09;4998179;28;20365;-74
2022/06/11 04:41:20;;;;;;;5.82;4.63;;;;;;;-144.82;100.00;71671.09;5015696;28;20034;-73
2022/06/11 04:43:46;;;;;;;4.88;4.00;;;;;;;-144.82;100.00;71671.09;4997872;28;20065;-73
2022/06/11 04:46:13;;;;;;;7.72;4.68;;;;;;;-144.82;100.00;71671.09;5015500;28;20478;-73
2022/06/11 04:48:39;;;;;;;6.88;4.25;;;;;;;-144.82;100.00;71671.09;5014212;28;20061;-74
2022/06/11 04:51:05;;;;;;;9.05;5.22;;;;;;;-144.82;100.00;71671.09;5014186;28;20455;-73
2022/06/11 04:53:32;;;;;;;12.63;6.90;;;;;;;-144.82;100.00;71671.09;5014295;28;20034;-74
2022/06/11 04:55:58;;;;;;;12.68;6.57;;;;;;;-144.82;100.00;71671.09;5014065;28;20506;-72
2022/06/11 04:58:25;;;;;;;17.38;7.68;;;;;;;-144.82;100.00;71671.09;5015517;28;20113;-73
2022/06/11 05:00:51;;;;;;;12.13;7.72;;;;;;;-144.82;100.00;71671.09;5015117;28;20030;-74
2022/06/11 05:03:19;;;;;;;12.13;7.25;;;;;;;-144.82;100.00;71671.09;5013941;28;20030;-73
2022/06/11 05:05:45;;;;;;;8.90;6.38;;;;;;;-144.82;100.00;71671.09;5015229;28;20034;-72
2022/06/11 05:08:13;;;;;;;11.23;6.60;;;;;;;-144.82;100.00;71671.09;5014651;28;20444;-74
2022/06/11 05:10:41;;;;;;;8.40;5.35;;;;;;;-144.82;100.00;71671.09;5015225;28;20144;-74
2022/06/11 05:13:09;;;;;;;9.65;5.38;;;;;;;-144.82;100.00;71671.09;5015141;28;20030;-73
2022/06/11 05:15:48;;;;;;;23.55;7.25;;;;;;;-144.82;100.00;71671.09;5013586;28;20040;-73
2022/06/11 05:18:14;;;;;;;11.40;6.03;;;;;;;-144.82;100.00;71671.09;5013787;28;20120;-74
2022/06/11 05:20:41;;;;;;;6.10;4.85;;;;;;;-144.82;100.00;71671.09;5013987;28;20038;-74
2022/06/11 05:23:10;;;;;;;8.98;4.88;;;;;;;-144.82;100.00;71671.09;5013606;28;20527;-73
2022/06/11 05:25:38;;;;;;;7.55;5.22;;;;;;;-144.82;100.00;71671.09;5014663;28;20030;-74
2022/06/11 05:28:09;;;;;;;10.07;6.28;;;;;;;-144.82;100.00;71671.09;5013427;28;20048;-73
2022/06/11 05:30:34;;;;;;;7.17;4.70;;;;;;;-144.82;100.00;71671.09;5013323;28;20050;-74
2022/06/11 05:33:01;;;;;;;8.05;4.45;;;;;;;-144.82;100.00;71671.09;5014704;28;20812;-75
2022/06/11 05:35:30;;;;;;;7.47;5.22;;;;;;;-144.82;100.00;71671.09;5014449;28;20467;-73
2022/06/11 05:38:00;;;;;;;8.00;5.15;;;;;;;-144.82;100.00;71671.09;5013313;28;20030;-73
2022/06/11 05:40:28;;;;;;;6.40;4.97;;;;;;;-144.82;100.00;71671.09;5013007;28;20036;-72
2022/06/11 05:42:54;;;;;;;7.05;4.93;;;;;;;-144.82;100.00;71671.09;4997174;28;20426;-73
2022/06/11 05:45:29;;;;;;;5.53;4.95;;;;;;;-144.82;100.00;71671.09;5013832;28;20096;-74
2022/06/11 05:47:55;;;;;;;6.18;5.03;;;;;;;-144.82;100.00;71671.09;4997702;28;20096;-76
2022/06/11 05:50:32;;;;;;;5.70;3.33;;;;;;;-144.82;100.00;71671.09;5013475;28;20080;-73
2022/06/11 05:52:59;;;;;;;4.97;3.22;;;;;;;-144.82;100.00;71671.09;5013268;28;20387;-76
2022/06/11 05:55:27;;;;;;;2.65;2.45;;;;;;;-144.82;100.00;71671.09;4997313;28;20368;-75
2022/06/11 05:58:09;;;;;;;3.63;2.50;;;;;;;-144.82;100.00;71671.09;5013135;28;20057;-75
2022/06/11 06:00:36;;;;;;;2.88;2.20;;;;;;;-144.82;100.00;71671.09;5014258;28;20033;-74
2022/06/11 06:03:01;;;;;;;2.50;2.10;;;;;;;-144.82;100.00;71671.09;5013119;28;20034;-75
2022/06/11 06:05:29;;;;;;;3.03;2.10;;;;;;;-144.82;100.00;71671.09;5012908;28;20040;-76
2022/06/11 06:07:56;;;;;;;2.60;2.25;;;;;;;-144.82;100.00;71671.09;5012582;28;20054;-75
2022/06/11 06:10:23;;;;;;;6.45;2.00;;;;;;;-144.82;100.00;71671.09;5014174;28;20145;-75
2022/06/11 06:12:52;;;;;;;2.33;1.73;;;;;;;-144.82;100.00;71671.09;5009381;28;20031;-75
2022/06/11 06:15:25;;;;;;;3.35;1.90;;;;;;;-144.82;100.00;71671.09;5011482;28;20026;-74
2022/06/11 06:17:52;;;;;;;2.90;1.95;;;;;;;-144.82;100.00;71671.09;5012929;28;20513;-75
2022/06/11 06:20:21;;;;;;;4.05;2.03;;;;;;;-144.82;100.00;71671.09;5011757;28;20034;-75
2022/06/11 06:22:47;;;;;;;3.63;1.77;;;;;;;-144.82;100.00;71671.09;5010049;28;20622;-75
2022/06/11 06:25:18;;;;;;;2.00;1.73;;;;;;;-144.82;100.00;71671.09;4996741;28;20033;-76
2022/06/11 06:27:43;;;;;;;;;;;;;;;-144.82;100.00;71671.09;5013179;28;20109;-75
2022/06/11 06:30:09;;;;;;;1.87;1.70;;;;;;;-144.82;100.00;71671.09;5013752;28;19910;-75
2022/06/11 06:32:35;;;;;;;3.92;1.90;;;;;;;-144.82;100.00;71671.09;5012689;28;20041;-75
2022/06/11 06:35:02;;;;;;;2.88;1.60;;;;;;;-144.82;100.00;71671.09;5013702;28;20025;-75
2022/06/11 06:37:28;;;;;;;2.22;1.55;;;;;;;-144.82;100.00;71671.09;5013773;28;20030;-75
2022/06/11 06:39:54;;;;;;;3.63;1.70;;;;;;;-144.82;100.00;71671.09;5013340;28;20108;-74
2022/06/11 06:42:20;;;;;;;2.13;1.90;;;;;;;-144.82;100.00;71671.09;5012927;28;20089;-76
2022/06/11 06:44:46;;;;;;;1.42;1.27;;;;;;;-144.82;100.00;71671.09;5013902;28;20030;-76
2022/06/11 06:47:11;;;;;;;15.20;4.05;;;;;;;-144.82;100.00;71671.09;4996379;28;20049;-76
2022/06/11 06:49:38;;;;;;;3.78;2.53;;;;;;;-144.82;100.00;71671.09;5011514;28;20420;-76
2022/06/11 06:52:06;;;;;;;2.35;1.77;;;;;;;-144.82;100.00;71671.09;5012432;28;20029;-75
2022/06/11 06:54:32;;;;;;;1.30;1.00;;;;;;;-144.82;100.00;71671.09;5013803;28;20022;-76
2022/06/11 06:56:58;;;;;;;3.45;1.52;;;;;;;-144.82;100.00;71671.09;5013591;28;20037;-74
2022/06/11 06:59:24;;;;;;;6.43;2.47;;;;;;;-144.82;100.00;71671.09;5003175;28;20030;-75
2022/06/11 07:01:51;;;;;;;2.10;1.40;;;;;;;-144.82;100.00;71671.09;5008785;28;20022;-75
2022/06/11 07:04:18;;;;;;;2.05;1.70;;;;;;;-144.82;100.00;71671.09;4995396;28;20052;-75
2022/06/11 07:06:43;;;;;;;1.65;1.42;;;;;;;-144.82;100.00;71671.09;4991899;28;20041;-75
2022/06/11 07:09:09;;;;;;;4.38;2.03;;;;;;;-144.82;100.00;71671.09;4993599;28;20046;-75
2022/06/11 07:11:34;;;;;;;2.42;1.52;;;;;;;-144.82;100.00;71671.09;4993758;28;20029;-75
2022/06/11 07:14:00;;;;;;;2.15;1.42;;;;;;;-144.82;100.00;71671.09;4992510;28;20172;-74
2022/06/11 07:16:33;;;;;;;7.75;2.95;;;;;;;-144.82;100.00;71671.09;4993877;28;20124;-75
2022/06/11 07:19:02;;;;;;;3.53;1.55;;;;;;;-144.82;100.00;71671.09;4992589;28;20030;-74
2022/06/11 07:21:33;;;;;;;3.40;1.70;;;;;;;-144.82;100.00;71671.09;5011154;28;20108;-73
2022/06/11 07:24:02;;;;;;;1.95;1.42;;;;;;;-144.82;100.00;71671.09;4997000;28;20031;-75
2022/06/11 07:26:39;;;;;;;2.60;1.50;;;;;;;-144.82;100.00;71671.09;4975503;28;20077;-74
2022/06/11 07:29:14;;;;;;;2.85;1.90;;;;;;;-144.82;100.00;71671.09;4960054;28;20042;-73
2022/06/11 07:31:53;;;;;;;6.85;1.77;;;;;;;-144.82;100.00;71671.09;4996205;28;20026;-75
2022/06/11 07:34:19;;;;;;;1.13;1.08;;;;;;;-144.82;100.00;71671.09;4996076;28;20034;-75
2022/06/11 07:36:45;;;;;;;1.05;1.02;;;;;;;-144.82;100.00;71671.09;5003706;28;20038;-75
2022/06/11 07:39:11;;;;;;;2.45;1.08;;;;;;;-144.82;100.00;71671.09;5007650;28;20076;-76
2022/06/11 07:41:36;;;;;;;1.08;0.98;;;;;;;-144.82;100.00;71671.09;5004002;28;20027;-77
2022/06/11 07:44:02;;;;;;;7.57;1.60;;;;;;;-144.82;100.00;71671.09;5005311;28;20042;-80
2022/06/11 07:46:28;;;;;;;1.60;1.10;;;;;;;-144.82;100.00;71671.09;4992188;28;20026;-78
2022/06/11 07:48:53;;;;;;;9.82;2.05;;;;;;;-144.82;100.00;71671.09;5009331;28;20038;-79
2022/06/11 07:51:18;;;;;;;3.45;1.63;;;;;;;-144.82;100.00;71671.09;5004571;28;20022;-79
2022/06/11 07:53:49;;;;;;;3.40;1.48;;;;;;;-144.82;100.00;71671.09;4999446;28;20026;-77
2022/06/11 07:56:16;;;;;;;4.40;1.30;;;;;;;-144.82;100.00;71671.09;4996086;28;20035;-77
2022/06/11 07:58:42;;;;;;;2.47;1.13;;;;;;;-144.82;100.00;71671.09;4994486;28;20042;-76
2022/06/11 08:01:07;;;;;;;3.58;2.08;;;;;;;-144.82;100.00;71671.09;4985767;28;20080;-73
2022/06/11 08:03:41;;;;;;;1.25;1.05;;;;;;;-144.82;100.00;71671.09;5015015;28;20038;-78
2022/06/11 08:06:08;;;;;;;2.35;1.20;;;;;;;-144.82;100.00;71671.09;5010076;28;20026;-80
2022/06/11 08:08:39;;;;;;;1.38;0.90;;;;;;;-144.82;100.00;71671.09;4996861;28;20565;-74
2022/06/11 08:11:06;;;;;;;2.83;1.10;;;;;;;-144.82;100.00;71671.09;4994023;28;20034;-74
2022/06/11 08:13:32;;;;;;;3.97;1.13;;;;;;;-144.82;100.00;71671.09;4995393;28;20117;-74
2022/06/11 08:15:58;;;;;;;1.27;1.00;;;;;;;-144.82;100.00;71671.09;4977362;28;20124;-76
2022/06/11 08:18:26;;;;;;;1.35;1.02;;;;;;;-144.82;100.00;71671.09;4986401;28;20042;-76
2022/06/11 08:20:52;;;;;;;1.67;1.05;;;;;;;-144.82;100.00;71671.09;4996615;28;20034;-78
2022/06/11 08:23:21;;;;;;;1.17;0.90;;;;;;;-144.82;100.00;71671.09;4996140;28;20030;-77
2022/06/11 08:25:47;;;;;;;2.22;1.42;;;;;;;-144.82;100.00;71671.09;4994664;28;20061;-76
2022/06/11 08:28:14;;;;;;;1.05;0.73;;;;;;;-144.82;100.00;71671.09;4994997;28;20034;-74
2022/06/11 08:30:41;;;;;;;1.33;0.98;;;;;;;-144.82;100.00;71671.09;4985176;28;20419;-75
2022/06/11 08:33:10;;;;;;;1.63;1.08;;;;;;;-144.82;100.00;71671.09;4994573;28;20046;-75
2022/06/11 08:35:37;;;;;;;0.80;0.65;;;;;;;-144.82;100.00;71671.09;4994065;28;20041;-74
2022/06/11 08:38:04;;;;;;;0.85;0.80;;;;;;;-144.82;100.00;71671.09;4995680;28;20050;-75
2022/06/11 08:40:47;;;;;;;1.67;1.00;;;;;;;-144.82;100.00;71671.09;4994582;28;20080;-77
2022/06/11 08:43:22;;;;;;;1.75;0.98;;;;;;;-144.82;100.00;71671.09;4993729;28;20539;-74
2022/06/11 08:46:01;;;;;;;1.80;0.70;;;;;;;-144.82;100.00;71671.09;5000432;28;20030;-74
2022/06/11 08:49:00;;;;;;;1.38;0.90;;;;;;;-144.82;100.00;71671.09;5003699;28;20383;-74
2022/06/11 08:51:42;;;;;;;3.08;1.10;;;;;;;-144.82;100.00;71671.09;5004337;28;20050;-75
2022/06/11 08:54:10;;;;;;;0.88;0.88;;;;;;;-144.82;100.00;71671.09;4994360;28;20037;-74
2022/06/11 08:56:51;;;;;;;3.08;0.93;;;;;;;-144.82;100.00;71671.09;4995776;28;20146;-75
2022/06/11 08:59:16;;;;;;;;;;;;;;;-144.82;100.00;71671.09;4995972;28;20053;-75
2022/06/11 09:01:47;;;;;;;1.67;0.90;;;;;;;-144.82;100.00;71671.09;4994737;28;20348;-75
2022/06/11 09:04:32;;;;;;;1.42;0.93;;;;;;;-144.82;100.00;71671.09;4994003;28;20026;-75
2022/06/11 09:07:33;;;;;;;2.25;1.00;;;;;;;-144.82;100.00;71671.09;4994918;28;20042;-75
2022/06/11 09:10:42;;;;;;;4.05;1.50;;;;;;;-144.82;100.00;71671.09;4915250;29;20052;-75
2022/06/11 09:13:25;;;;;;;1.42;1.08;;;;;;;-144.82;100.00;71671.09;4928864;28;20047;-75
2022/06/11 09:16:13;;;;;;;1.42;1.05;;;;;;;-144.82;100.00;71671.09;4990963;28;20117;-75
2022/06/11 09:19:13;;;;;;;1.85;1.35;;;;;;;-144.82;100.00;71671.09;4975838;28;20118;-75
2022/06/11 09:21:57;;;;;;;2.80;1.30;;;;;;;-144.82;100.00;71671.09;4975771;28;20110;-77
2022/06/11 09:24:26;;;;;;;3.42;1.27;;;;;;;-144.82;100.00;71671.09;4981782;28;20062;-75
2022/06/11 09:26:56;;;;;;;3.40;1.30;;;;;;;-144.82;100.00;71671.09;4995313;28;20057;-74
2022/06/11 09:29:30;;;;;;;1.70;1.20;;;;;;;-144.82;100.00;71671.09;4995544;28;20065;-75
2022/06/11 09:32:28;;;;;;;1.90;1.30;;;;;;;-144.82;100.00;71671.09;4995091;28;20117;-75
2022/06/11 09:35:19;;;;;;;1.02;0.88;;;;;;;-144.82;100.00;71671.09;4994808;28;20133;-75
2022/06/11 09:38:06;;;;;;;1.20;1.10;;;;;;;-144.82;100.00;71671.09;4993606;28;20030;-73
2022/06/11 09:40:38;;;;;;;1.17;1.00;;;;;;;-144.82;100.00;71671.09;4995370;28;20451;-73
2022/06/11 09:43:18;;;;;;;2.85;1.35;;;;;;;-144.82;100.00;71671.09;4995158;28;20034;-74
2022/06/11 09:45:57;;;;;;;1.95;1.30;;;;;;;-144.82;100.00;71671.09;4993529;28;20034;-76
2022/06/11 09:48:37;;;;;;;2.97;1.10;;;;;;;-144.82;100.00;71671.09;4993673;28;20072;-74
2022/06/11 09:51:15;;;;;;;1.50;1.20;;;;;;;-144.82;100.00;71671.09;4993765;28;20050;-75
2022/06/11 09:53:54;;;;;;;3.33;1.42;;;;;;;-144.82;100.00;71671.09;4998835;28;20081;-76
2022/06/11 09:56:32;;;;;;;3.22;1.50;;;;;;;-144.82;100.00;71671.09;5014530;28;20467;-76
2022/06/11 09:59:37;;;;;;;2.25;1.23;;;;;;;-144.82;100.00;71671.09;5014222;28;20491;-76
2022/06/11 10:02:16;;;;;;;3.03;1.55;;;;;;;-144.82;100.00;71671.09;5014181;28;20036;-75
2022/06/11 10:04:44;;;;;;;3.08;1.48;;;;;;;-144.82;100.00;71671.09;5014147;28;20481;-74
2022/06/11 10:07:19;;;;;;;3.90;1.30;;;;;;;-144.82;100.00;71671.09;5012897;28;20034;-73
2022/06/11 10:10:13;;;;;;;3.15;1.20;;;;;;;-144.82;100.00;71671.09;5012692;28;20097;-73
2022/06/11 10:12:52;;;;;;;5.13;1.60;;;;;;;-144.82;100.00;71671.09;5013073;28;20118;-73
2022/06/11 10:15:35;;;;;;;2.78;1.33;;;;;;;-144.82;100.00;71671.09;5013031;28;20036;-74
2022/06/11 10:18:12;;;;;;;1.58;1.20;;;;;;;-144.82;100.00;71671.09;5012821;28;20439;-74
2022/06/11 10:20:44;;;;;;;5.85;1.67;;;;;;;-144.82;100.00;71671.09;5014222;28;20029;-74
2022/06/11 10:23:19;;;;;;;2.83;1.15;;;;;;;-144.82;100.00;71671.09;5013019;28;20040;-75
2022/06/11 10:25:51;;;;;;;2.42;1.05;;;;;;;-144.82;100.00;71671.09;5013887;28;20463;-75
2022/06/11 10:28:33;;;;;;;2.67;1.10;;;;;;;-144.82;100.00;71671.09;5013850;28;20101;-75
2022/06/11 10:31:44;;;;;;;1.10;1.10;;;;;;;-144.82;100.00;71671.09;5012481;28;20088;-75
2022/06/11 10:34:14;;;;;;;1.17;1.10;;;;;;;-144.82;100.00;71671.09;5009989;28;20037;-74
2022/06/11 10:36:55;;;;;;;1.20;1.10;;;;;;;-144.82;100.00;71671.09;5012825;28;20037;-75
2022/06/11 10:39:35;;;;;;;1.77;1.20;;;;;;;-144.82;100.00;71671.09;5013665;28;20534;-76
2022/06/11 10:42:13;;;;;;;3.95;1.40;;;;;;;-144.82;100.00;71671.09;5013923;28;20073;-75
2022/06/11 10:44:47;;;;;;;1.50;1.40;;;;;;;-144.82;100.00;71671.09;5012260;28;20049;-73
2022/06/11 10:47:42;;;;;;;2.78;1.02;;;;;;;-144.82;100.00;71671.09;5012401;28;20113;-76
2022/06/11 10:50:11;;;;;;;2.83;1.33;;;;;;;-144.82;100.00;71671.09;5012477;28;20026;-75
2022/06/11 10:53:05;;;;;;;2.33;1.00;;;;;;;-144.82;100.00;71671.09;5013716;28;20476;-76
2022/06/11 10:55:49;;;;;;;1.10;1.00;;;;;;;-144.82;100.00;71671.09;5012713;28;20040;-77
2022/06/11 10:58:42;;;;;;;2.53;1.10;;;;;;;-144.82;100.00;71671.09;5013783;28;20030;-73
2022/06/11 11:01:22;;;;;;;2.85;1.60;;;;;;;-144.82;100.00;71671.09;5014373;28;20091;-74
2022/06/11 11:04:06;;;;;;;1.83;1.55;;;;;;;-144.82;100.00;71671.09;5012313;28;20034;-77
2022/06/11 11:06:44;;;;;;;9.18;2.13;;;;;;;-144.82;100.00;71671.09;5016000;28;20499;-74
2022/06/11 11:09:29;;;;;;;3.65;1.15;;;;;;;-144.82;100.00;71671.09;5016498;28;20065;-76
2022/06/11 11:12:02;;;;;;;1.88;1.10;;;;;;;-144.82;100.00;71671.09;5017275;28;20479;-76
2022/06/11 11:14:41;;;;;;;2.67;1.45;;;;;;;-144.82;100.00;71671.09;4999714;28;20061;-76
2022/06/11 11:17:18;;;;;;;2.83;1.10;;;;;;;-144.82;100.00;71671.09;5016099;28;20076;-74
2022/06/11 11:23:29;;;;;;;2.03;1.25;;;;;;;-144.82;100.00;71671.09;5017533;28;20044;-74
2022/06/11 11:26:06;;;;;;;1.10;0.82;;;;;;;-144.82;100.00;71671.09;5014059;28;20411;-75
2022/06/11 11:28:53;;;;;;;1.25;0.90;;;;;;;-144.82;100.00;71671.09;4999420;28;20038;-74
2022/06/11 11:31:23;;;;;;;0.90;0.90;;;;;;;-144.82;100.00;71671.09;5017246;28;20033;-75
2022/06/11 11:34:32;;;;;;;3.75;1.10;;;;;;;-144.82;100.00;71671.09;5016020;28;20037;-74
2022/06/11 11:37:31;;;;;;;2.58;0.90;;;;;;;-144.82;100.00;71671.09;4937124;29;20389;-75
2022/06/11 11:40:00;;;;;;;2.47;1.10;;;;;;;-144.82;100.00;71671.09;4932713;29;20043;-75
2022/06/11 11:42:39;;;;;;;1.48;1.05;;;;;;;-144.82;100.00;71671.09;4921611;29;20035;-76